createdAt,value
2018-09-03T00:01:18.782Z,5.90
2018-09-03T00:03:47.255Z,4.50
2018-09-03T00:06:15.715Z,5.47
2018-09-03T00:08:44.218Z,5.03
2018-09-03T00:11:12.699Z,6.33
2018-09-03T00:13:41.202Z,4.53
2018-09-03T00:16:09.687Z,5.77
2018-09-03T00:18:38.150Z,4.73
2018-09-03T00:21:06.610Z,5.40
2018-09-03T00:23:35.092Z,5.40
2018-09-03T00:26:03.567Z,5.37
2018-09-03T00:28:32.042Z,4.70
2018-09-03T00:31:05.713Z,5.17
2018-09-03T00:33:39.423Z,7.43
2018-09-03T00:36:13.123Z,5.20
2018-09-03T00:38:46.779Z,4.23
2018-09-03T00:41:20.691Z,3.90
2018-09-03T00:43:54.394Z,6.70
2018-09-03T00:46:27.993Z,6.57
2018-09-03T00:48:56.469Z,4.30
2018-09-03T00:51:24.947Z,4.27
2018-09-03T00:53:53.410Z,4.17
2018-09-03T00:56:21.902Z,5.33
2018-09-03T00:58:50.363Z,4.70
2018-09-03T01:01:18.847Z,4.90
2018-09-03T01:03:47.300Z,6.20
2018-09-03T01:06:15.782Z,5.17
2018-09-03T01:08:44.253Z,4.93
2018-09-03T01:11:12.732Z,7.23
2018-09-03T01:13:41.192Z,6.37
2018-09-03T01:16:09.678Z,4.87
2018-09-03T01:18:40.607Z,5.63
2018-09-03T01:21:09.247Z,4.70
2018-09-03T01:23:37.691Z,4.40
2018-09-03T01:26:06.231Z,5.77
2018-09-03T01:28:34.863Z,6.53
2018-09-03T01:31:03.327Z,4.37
2018-09-03T01:33:31.797Z,5.83
2018-09-03T01:36:00.250Z,9.47
2018-09-03T01:38:28.722Z,4.80
2018-09-03T01:40:57.601Z,6.03
2018-09-03T01:43:26.081Z,5.60
2018-09-03T01:45:54.531Z,5.50
2018-09-03T01:48:23.003Z,5.13
2018-09-03T01:50:51.494Z,8.07
2018-09-03T01:53:19.966Z,5.23
2018-09-03T01:55:48.424Z,5.33
2018-09-03T01:58:16.907Z,8.03
2018-09-03T02:00:45.397Z,4.80
2018-09-03T02:03:13.926Z,7.33
2018-09-03T02:05:42.387Z,5.40
2018-09-03T02:08:10.883Z,7.17
2018-09-03T02:10:39.350Z,5.47
2018-09-03T02:13:07.833Z,4.80
2018-09-03T02:15:36.301Z,7.63
2018-09-03T02:18:04.860Z,5.33
2018-09-03T02:20:33.366Z,5.27
2018-09-03T02:23:02.137Z,6.10
2018-09-03T02:25:30.630Z,4.97
2018-09-03T02:27:59.084Z,8.63
2018-09-03T02:30:27.611Z,4.97
2018-09-03T02:32:56.157Z,7.37
2018-09-03T02:35:24.650Z,5.27
2018-09-03T02:37:53.108Z,8.03
2018-09-03T02:40:21.599Z,5.93
2018-09-03T02:42:50.335Z,7.20
2018-09-03T02:45:18.815Z,7.27
2018-09-03T02:47:47.267Z,6.00
2018-09-03T02:50:15.746Z,5.53
2018-09-03T02:52:44.227Z,8.40
2018-09-03T02:55:12.723Z,5.77
2018-09-03T02:57:41.199Z,6.57
2018-09-03T03:00:10.092Z,7.50
2018-09-03T03:02:38.543Z,5.80
2018-09-03T03:05:07.828Z,5.50
2018-09-03T03:07:36.278Z,6.30
2018-09-03T03:10:04.994Z,5.70
2018-09-03T03:12:33.439Z,6.10
2018-09-03T03:15:02.286Z,6.27
2018-09-03T03:17:30.773Z,6.10
2018-09-03T03:19:59.291Z,7.10
2018-09-03T03:22:27.738Z,6.50
2018-09-03T03:24:56.210Z,7.80
2018-09-03T03:27:24.670Z,6.53
2018-09-03T03:29:53.159Z,6.70
2018-09-03T03:32:21.619Z,6.43
2018-09-03T03:34:50.078Z,9.03
2018-09-03T03:37:18.550Z,9.33
2018-09-03T03:39:47.030Z,6.60
2018-09-03T03:42:15.846Z,6.00
2018-09-03T03:44:44.659Z,8.10
2018-09-03T03:47:13.142Z,6.73
2018-09-03T03:49:41.668Z,6.97
2018-09-03T03:52:10.170Z,6.77
2018-09-03T03:54:38.632Z,6.63
2018-09-03T03:57:07.556Z,7.73
2018-09-03T03:59:36.022Z,9.70
2018-09-03T04:02:04.534Z,6.77
2018-09-03T04:04:33.004Z,7.73
2018-09-03T04:07:01.482Z,7.00
2018-09-03T04:09:29.954Z,7.30
2018-09-03T04:11:58.459Z,7.83
2018-09-03T04:14:26.958Z,8.43
2018-09-03T04:16:55.439Z,7.20
2018-09-03T04:19:23.916Z,6.77
2018-09-03T04:21:52.507Z,7.50
2018-09-03T04:24:20.987Z,8.50
2018-09-03T04:26:49.449Z,8.60
2018-09-03T04:29:17.910Z,8.93
2018-09-03T04:31:46.379Z,7.23
2018-09-03T04:34:14.840Z,8.10
2018-09-03T04:36:43.333Z,9.30
2018-09-03T04:39:11.784Z,7.83
2018-09-03T04:41:40.229Z,6.80
2018-09-03T04:44:08.698Z,7.67
2018-09-03T04:46:37.171Z,7.47
2018-09-03T04:49:06.063Z,8.03
2018-09-03T04:51:34.515Z,8.63
2018-09-03T04:54:03.015Z,8.40
2018-09-03T04:56:31.447Z,7.67
2018-09-03T04:58:59.991Z,7.30
2018-09-03T05:01:28.430Z,8.40
2018-09-03T05:03:56.917Z,8.03
2018-09-03T05:06:25.412Z,8.47
2018-09-03T05:08:53.892Z,8.83
2018-09-03T05:11:22.360Z,10.77
2018-09-03T05:13:50.874Z,8.70
2018-09-03T05:16:19.334Z,8.60
2018-09-03T05:18:47.811Z,8.60
2018-09-03T05:21:16.283Z,11.07
2018-09-03T05:23:44.781Z,8.73
2018-09-03T05:26:13.337Z,10.87
2018-09-03T05:28:41.819Z,10.50
2018-09-03T05:31:10.337Z,11.57
2018-09-03T05:33:39.002Z,11.63
2018-09-03T05:36:07.479Z,12.17
2018-09-03T05:38:35.951Z,9.73
2018-09-03T05:41:04.403Z,10.60
2018-09-03T05:43:33.265Z,9.83
2018-09-03T05:46:01.792Z,12.27
2018-09-03T05:48:30.279Z,10.67
2018-09-03T05:50:58.742Z,11.63
2018-09-03T05:53:27.270Z,10.97
2018-09-03T05:55:56.050Z,10.63
2018-09-03T05:58:24.710Z,11.10
2018-09-03T06:00:53.230Z,11.00
2018-09-03T06:03:21.712Z,12.30
2018-09-03T06:05:50.195Z,13.50
2018-09-03T06:08:19.366Z,12.70
2018-09-03T06:10:47.857Z,14.43
2018-09-03T06:13:16.330Z,10.83
2018-09-03T06:15:44.866Z,11.30
2018-09-03T06:18:13.367Z,12.50
2018-09-03T06:20:41.838Z,12.47
2018-09-03T06:23:10.290Z,12.77
2018-09-03T06:25:39.023Z,11.57
2018-09-03T06:28:07.526Z,12.83
2018-09-03T06:30:42.826Z,16.53
2018-09-03T06:33:11.356Z,13.97
2018-09-03T06:35:39.862Z,14.87
2018-09-03T06:38:08.346Z,14.50
2018-09-03T06:40:36.830Z,24.50
2018-09-03T06:43:05.582Z,12.37
2018-09-03T06:45:34.061Z,13.47
2018-09-03T06:48:02.523Z,13.13
2018-09-03T06:50:30.995Z,12.07
2018-09-03T06:52:59.451Z,11.47
2018-09-03T06:55:27.931Z,12.73
2018-09-03T06:57:56.422Z,13.43
2018-09-03T07:00:24.974Z,12.17
2018-09-03T07:02:53.479Z,16.57
2018-09-03T07:05:21.964Z,19.03
2018-09-03T07:07:50.443Z,13.10
2018-09-03T07:10:18.935Z,12.77
2018-09-03T07:12:47.447Z,14.23
2018-09-03T07:15:15.924Z,14.27
2018-09-03T07:17:44.383Z,14.47
2018-09-03T07:20:12.809Z,14.00
2018-09-03T07:22:41.578Z,13.80
2018-09-03T07:25:10.000Z,15.77
2018-09-03T07:27:38.523Z,14.03
2018-09-03T07:30:07.043Z,14.00
2018-09-03T07:32:35.526Z,12.33
2018-09-03T07:35:04.687Z,12.13
2018-09-03T07:37:33.657Z,13.17
2018-09-03T07:40:02.127Z,12.50
2018-09-03T07:42:30.843Z,12.10
2018-09-03T07:44:59.246Z,15.17
2018-09-03T07:47:27.742Z,11.47
2018-09-03T07:49:56.691Z,15.23
2018-09-03T07:52:25.111Z,13.20
2018-09-03T07:54:53.539Z,12.20
2018-09-03T07:57:21.978Z,15.00
2018-09-03T07:59:50.422Z,15.07
2018-09-03T08:02:18.825Z,16.07
2018-09-03T08:04:47.250Z,12.83
2018-09-03T08:07:15.716Z,13.00
2018-09-03T08:09:44.298Z,15.30
2018-09-03T08:12:12.699Z,13.53
2018-09-03T08:14:41.459Z,13.50
2018-09-03T08:17:10.231Z,12.93
2018-09-03T08:19:38.657Z,15.83
2018-09-03T08:22:07.114Z,15.23
2018-09-03T08:24:35.537Z,12.63
2018-09-03T08:27:04.570Z,12.87
2018-09-03T08:29:33.267Z,12.30
2018-09-03T08:32:02.384Z,14.67
2018-09-03T08:34:30.815Z,13.10
2018-09-03T08:36:59.286Z,11.90
2018-09-03T08:39:27.750Z,15.60
2018-09-03T08:41:56.155Z,12.27
2018-09-03T08:44:24.648Z,12.30
2018-09-03T08:46:53.467Z,15.57
2018-09-03T08:49:21.886Z,13.07
2018-09-03T08:53:14.763Z,12.33
2018-09-03T08:55:43.174Z,11.50
2018-09-03T08:58:11.600Z,11.23
2018-09-03T09:00:40.042Z,12.20
2018-09-03T09:03:13.883Z,11.53
2018-09-03T09:05:42.759Z,12.00
2018-09-03T09:08:11.548Z,11.00
2018-09-03T09:10:39.981Z,14.13
2018-09-03T09:13:08.763Z,10.40
2018-09-03T09:15:37.218Z,12.13
2018-09-03T09:18:05.699Z,15.27
2018-09-03T09:20:35.054Z,11.33
2018-09-03T09:23:04.599Z,11.17
2018-09-03T09:25:34.003Z,12.37
2018-09-03T09:28:04.646Z,11.67
2018-09-03T09:30:34.868Z,10.20
2018-09-03T09:33:03.912Z,14.60
2018-09-03T09:35:32.995Z,11.97
2018-09-03T09:38:01.782Z,12.50
2018-09-03T09:40:30.606Z,12.93
2018-09-03T09:42:59.304Z,11.63
2018-09-03T09:45:27.943Z,11.17
2018-09-03T09:47:56.360Z,10.60
2018-09-03T09:50:24.798Z,12.73
2018-09-03T09:52:53.271Z,13.33
2018-09-03T09:55:22.350Z,13.13
2018-09-03T09:57:50.804Z,18.60
2018-09-03T10:00:24.425Z,14.43
2018-09-03T10:02:52.886Z,12.43
2018-09-03T10:05:21.303Z,16.90
2018-09-03T10:07:49.722Z,13.33
2018-09-03T10:10:18.119Z,12.80
2018-09-03T10:12:46.546Z,16.17
2018-09-03T10:15:14.958Z,12.30
2018-09-03T10:17:43.367Z,13.17
2018-09-03T10:20:12.234Z,12.80
2018-09-03T10:22:40.659Z,11.63
2018-09-03T10:25:09.067Z,12.33
2018-09-03T10:27:37.473Z,13.10
2018-09-03T10:30:06.235Z,12.87
2018-09-03T10:32:34.725Z,12.60
2018-09-03T10:35:03.159Z,12.37
2018-09-03T10:37:31.608Z,13.77
2018-09-03T10:40:00.023Z,13.53
2018-09-03T10:42:28.926Z,12.87
2018-09-03T10:44:57.678Z,12.90
2018-09-03T10:47:26.125Z,14.50
2018-09-03T10:49:54.730Z,13.23
2018-09-03T10:52:23.162Z,14.03
2018-09-03T10:54:51.578Z,12.20
2018-09-03T10:57:19.969Z,16.17
2018-09-03T10:59:48.395Z,14.63
2018-09-03T11:02:16.882Z,14.40
2018-09-03T11:04:45.302Z,13.93
2018-09-03T11:07:13.697Z,15.67
2018-09-03T11:09:42.133Z,16.67
2018-09-03T11:12:10.570Z,19.57
2018-09-03T11:14:39.034Z,21.97
2018-09-03T11:17:07.431Z,18.10
2018-09-03T11:19:39.687Z,17.53
2018-09-03T11:22:08.095Z,17.53
2018-09-03T11:24:36.530Z,17.20
2018-09-03T11:27:05.638Z,18.37
2018-09-03T11:29:34.059Z,17.70
2018-09-03T11:32:02.873Z,19.23
2018-09-03T11:34:31.315Z,17.53
2018-09-03T11:36:59.742Z,18.20
2018-09-03T11:39:28.211Z,18.67
2018-09-03T11:41:56.627Z,19.00
2018-09-03T11:44:25.057Z,18.47
2018-09-03T11:46:53.483Z,18.57
2018-09-03T11:49:21.896Z,18.97
2018-09-03T11:51:50.312Z,19.67
2018-09-03T11:54:18.743Z,20.63
2018-09-03T11:56:47.155Z,22.53
2018-09-03T11:59:15.575Z,19.03
2018-09-03T12:01:43.970Z,18.70
2018-09-03T12:04:12.374Z,18.30
2018-09-03T12:06:40.842Z,19.57
2018-09-03T12:09:10.327Z,18.10
2018-09-03T12:11:38.758Z,18.30
2018-09-03T12:14:10.571Z,18.73
2018-09-03T12:16:39.035Z,19.43
2018-09-03T12:19:07.434Z,20.33
2018-09-03T12:21:35.871Z,20.30
2018-09-03T12:24:04.293Z,21.30
2018-09-03T12:26:32.743Z,21.13
2018-09-03T12:29:01.150Z,24.07
2018-09-03T12:31:29.562Z,21.47
2018-09-03T12:33:57.971Z,21.30
2018-09-03T12:36:26.395Z,22.83
2018-09-03T12:38:54.806Z,22.20
2018-09-03T12:41:23.271Z,21.17
2018-09-03T12:43:57.476Z,21.00
2018-09-03T12:46:37.807Z,20.57
2018-09-03T12:49:11.984Z,18.60
2018-09-03T12:51:43.995Z,19.23
2018-09-03T12:54:17.158Z,20.53
2018-09-03T12:56:49.047Z,20.83
2018-09-03T12:59:22.635Z,19.90
2018-09-03T13:01:54.286Z,19.57
2018-09-03T13:04:23.631Z,19.90
2018-09-03T13:06:54.631Z,20.73
2018-09-03T13:09:24.765Z,21.17
2018-09-03T13:11:54.964Z,19.90
2018-09-03T13:14:24.943Z,17.73
2018-09-03T13:17:04.558Z,19.13
2018-09-03T13:19:36.614Z,19.13
2018-09-03T13:22:11.072Z,19.63
2018-09-03T13:24:41.520Z,21.13
2018-09-03T13:27:13.437Z,20.97
2018-09-03T13:32:42.808Z,25.37
2018-09-03T13:35:26.265Z,23.10
2018-09-03T13:37:54.828Z,25.97
2018-09-03T13:40:23.278Z,22.10
2018-09-03T13:42:51.719Z,22.40
2018-09-03T13:45:20.120Z,21.93
2018-09-03T13:47:48.561Z,24.00
2018-09-03T13:50:16.977Z,22.67
2018-09-03T13:52:45.395Z,24.90
2018-09-03T13:55:13.849Z,22.00
2018-09-03T13:57:42.431Z,23.27
2018-09-03T14:00:12.290Z,22.53
2018-09-03T14:02:40.758Z,22.10
2018-09-03T14:05:09.174Z,22.27
2018-09-03T14:07:37.592Z,21.57
2018-09-03T14:10:06.159Z,24.27
2018-09-03T14:12:34.702Z,23.07
2018-09-03T14:15:03.178Z,22.23
2018-09-03T14:17:31.934Z,23.90
2018-09-03T14:20:00.488Z,23.60
2018-09-03T14:22:29.009Z,22.27
2018-09-03T14:24:57.609Z,23.20
2018-09-03T14:27:26.023Z,21.93
2018-09-03T14:29:54.767Z,22.83
2018-09-03T14:32:23.315Z,22.27
2018-09-03T14:34:51.747Z,23.33
2018-09-03T14:37:20.155Z,24.17
2018-09-03T14:39:50.690Z,23.17
2018-09-03T14:42:19.094Z,23.77
2018-09-03T14:44:47.525Z,26.87
2018-09-03T14:47:15.915Z,23.13
2018-09-03T14:49:44.418Z,22.00
2018-09-03T14:52:13.314Z,23.63
2018-09-03T14:54:41.738Z,23.63
2018-09-03T14:57:10.143Z,22.60
2018-09-03T14:59:38.631Z,22.60
2018-09-03T15:02:07.215Z,23.20
2018-09-03T15:04:35.968Z,22.27
2018-09-03T15:07:04.398Z,22.77
2018-09-03T15:09:33.000Z,23.40
2018-09-03T15:12:01.402Z,26.37
2018-09-03T15:14:29.891Z,22.93
2018-09-03T15:16:58.662Z,21.43
2018-09-03T15:19:27.142Z,22.27
2018-09-03T15:21:56.448Z,21.80
2018-09-03T15:24:25.010Z,23.33
2018-09-03T15:26:53.431Z,21.83
2018-09-03T15:29:21.942Z,26.40
2018-09-03T15:31:50.498Z,22.63
2018-09-03T15:34:18.919Z,22.10
2018-09-03T15:36:47.744Z,21.83
2018-09-03T15:39:16.155Z,23.30
2018-09-03T15:41:44.592Z,22.53
2018-09-03T15:44:12.999Z,22.33
2018-09-03T15:46:41.463Z,23.50
2018-09-03T15:49:09.962Z,23.33
2018-09-03T15:51:38.498Z,24.60
2018-09-03T15:54:06.989Z,23.93
2018-09-03T15:56:35.571Z,22.73
2018-09-03T15:59:04.382Z,24.77
2018-09-03T16:01:32.822Z,23.27
2018-09-03T16:04:01.231Z,22.17
2018-09-03T16:06:29.678Z,26.60
2018-09-03T16:08:58.138Z,22.93
2018-09-03T16:11:26.574Z,23.13
2018-09-03T16:13:54.966Z,23.10
2018-09-03T16:16:23.403Z,23.70
2018-09-03T16:18:51.790Z,25.97
2018-09-03T16:21:20.188Z,23.37
2018-09-03T16:23:48.631Z,22.57
2018-09-03T16:26:17.020Z,23.00
2018-09-03T16:28:45.454Z,25.90
2018-09-03T16:31:13.864Z,22.67
2018-09-03T16:33:43.866Z,24.13
2018-09-03T16:36:12.258Z,22.70
2018-09-03T16:38:40.710Z,21.07
2018-09-03T16:41:09.463Z,23.30
2018-09-03T16:43:37.907Z,21.60
2018-09-03T16:46:06.326Z,22.20
2018-09-03T16:48:34.767Z,22.13
2018-09-03T16:51:03.235Z,24.77
2018-09-03T16:53:31.754Z,23.57
2018-09-03T16:56:01.200Z,24.70
2018-09-03T16:58:29.633Z,24.33
2018-09-03T17:00:58.134Z,23.47
2018-09-03T17:03:26.757Z,24.03
2018-09-03T17:05:55.203Z,22.93
2018-09-03T17:08:23.822Z,22.40
2018-09-03T17:10:52.410Z,22.77
2018-09-03T17:13:20.844Z,26.20
2018-09-03T17:15:49.464Z,23.70
2018-09-03T17:18:17.878Z,23.83
2018-09-03T17:20:46.311Z,23.90
2018-09-03T17:23:14.730Z,23.47
2018-09-03T17:25:43.134Z,22.53
2018-09-03T17:28:11.558Z,23.27
2018-09-03T17:32:04.522Z,22.40
2018-09-03T17:34:32.942Z,22.03
2018-09-03T17:37:01.343Z,21.77
2018-09-03T17:39:29.766Z,21.80
2018-09-03T17:41:58.158Z,21.83
2018-09-03T17:44:26.570Z,22.80
2018-09-03T17:46:54.974Z,21.73
2018-09-03T17:49:23.408Z,22.70
2018-09-03T17:51:51.819Z,21.73
2018-09-03T17:54:20.334Z,23.70
2018-09-03T17:56:48.808Z,23.93
2018-09-03T17:59:17.300Z,22.70
2018-09-03T18:01:45.843Z,22.40
2018-09-03T18:04:14.339Z,22.50
2018-09-03T18:06:42.838Z,22.73
2018-09-03T18:09:11.293Z,24.60
2018-09-03T18:11:39.786Z,23.70
2018-09-03T18:14:08.310Z,23.30
2018-09-03T18:16:37.526Z,23.63
2018-09-03T18:19:06.449Z,23.43
2018-09-03T18:21:35.241Z,23.60
2018-09-03T18:24:03.944Z,24.03
2018-09-03T18:26:32.731Z,24.97
2018-09-03T18:29:01.268Z,22.83
2018-09-03T18:31:30.056Z,23.83
2018-09-03T18:34:01.223Z,22.67
2018-09-03T18:36:31.321Z,23.83
2018-09-03T18:39:00.579Z,25.40
2018-09-03T18:41:30.734Z,23.80
2018-09-03T18:43:59.478Z,25.87
2018-09-03T18:46:27.977Z,24.77
2018-09-03T18:48:57.429Z,25.27
2018-09-03T18:51:25.974Z,23.93
2018-09-03T18:53:54.463Z,24.03
2018-09-03T18:56:22.951Z,23.63
2018-09-03T18:59:03.696Z,24.00
2018-09-03T19:01:34.334Z,23.17
2018-09-03T19:04:05.696Z,24.40
2018-09-03T19:06:34.255Z,24.50
2018-09-03T19:09:03.070Z,23.73
2018-09-03T19:11:32.087Z,23.50
2018-09-03T19:14:00.848Z,24.97
2018-09-03T19:16:31.624Z,26.87
2018-09-03T19:19:03.026Z,24.97
2018-09-03T19:21:31.701Z,26.20
2018-09-03T19:24:02.047Z,24.27
2018-09-03T19:26:37.576Z,24.87
2018-09-03T19:29:08.283Z,24.70
2018-09-03T19:31:42.071Z,24.47
2018-09-03T19:34:10.685Z,24.50
2018-09-03T19:36:40.962Z,25.07
2018-09-03T19:39:11.937Z,25.50
2018-09-03T19:41:44.901Z,24.63
2018-09-03T19:44:16.566Z,26.53
2018-09-03T19:46:48.568Z,25.47
2018-09-03T19:49:20.715Z,26.20
2018-09-03T19:51:54.295Z,24.80
2018-09-03T19:54:22.942Z,27.00
2018-09-03T19:58:25.315Z,24.93
2018-09-03T20:01:02.129Z,25.30
2018-09-03T20:03:39.795Z,24.87
2018-09-03T20:06:08.528Z,24.77
2018-09-03T20:08:38.857Z,24.87
2018-09-03T20:11:07.394Z,27.10
2018-09-03T20:13:35.952Z,27.40
2018-09-03T20:16:04.582Z,28.03
2018-09-03T20:18:33.110Z,28.23
2018-09-03T20:21:01.622Z,26.63
2018-09-03T20:23:30.214Z,27.20
2018-09-03T20:25:58.786Z,28.50
2018-09-03T20:28:27.281Z,28.03
2018-09-03T20:30:55.948Z,26.80
2018-09-03T20:33:24.614Z,24.73
2018-09-03T20:35:53.087Z,28.50
2018-09-03T20:38:21.555Z,27.03
2018-09-03T20:40:50.051Z,30.77
2018-09-03T20:43:18.502Z,31.13
2018-09-03T20:45:46.992Z,32.93
2018-09-03T20:48:15.490Z,32.80
2018-09-03T20:50:44.013Z,35.97
2018-09-03T20:53:12.475Z,35.93
2018-09-03T20:55:41.001Z,35.70
2018-09-03T20:58:09.478Z,37.20
2018-09-03T21:00:38.033Z,38.27
2018-09-03T21:03:07.010Z,37.93
2018-09-03T21:05:35.478Z,41.53
2018-09-03T21:08:03.947Z,39.20
2018-09-03T21:10:32.469Z,41.37
2018-09-03T21:13:00.938Z,43.77
2018-09-03T21:15:29.427Z,46.30
2018-09-03T21:17:57.868Z,45.93
2018-09-03T21:20:26.314Z,46.30
2018-09-03T21:22:54.774Z,48.90
2018-09-03T21:25:23.498Z,48.80
2018-09-03T21:27:51.963Z,48.53
2018-09-03T21:30:20.422Z,49.27
2018-09-03T21:32:48.926Z,52.37
2018-09-03T21:35:17.482Z,50.30
2018-09-03T21:37:46.019Z,48.67
2018-09-03T21:40:14.493Z,46.60
2018-09-03T21:42:42.975Z,45.83
2018-09-03T21:45:11.853Z,46.90
2018-09-03T21:47:40.411Z,49.43
2018-09-03T21:50:09.667Z,49.20
2018-09-03T21:52:38.226Z,52.43
2018-09-03T21:55:07.139Z,50.87
2018-09-03T21:57:36.046Z,48.30
2018-09-03T22:00:04.864Z,48.13
2018-09-03T22:02:33.707Z,50.00
2018-09-03T22:05:02.157Z,51.83
2018-09-03T22:07:30.623Z,53.10
2018-09-03T22:09:59.170Z,53.60
2018-09-03T22:12:27.610Z,57.27
2018-09-03T22:14:56.055Z,55.23
2018-09-03T22:17:24.587Z,56.80
2018-09-03T22:19:53.050Z,54.23
2018-09-03T22:22:21.567Z,56.67
2018-09-03T22:24:50.074Z,57.50
2018-09-03T22:27:18.575Z,56.63
2018-09-03T22:29:47.011Z,56.67
2018-09-03T22:32:15.547Z,58.67
2018-09-03T22:34:43.989Z,62.00
2018-09-03T22:37:12.439Z,63.37
2018-09-03T22:39:41.043Z,59.17
2018-09-03T22:42:09.479Z,62.63
2018-09-03T22:44:37.956Z,63.67
2018-09-03T22:47:06.451Z,60.37
2018-09-03T22:49:34.947Z,63.13
2018-09-03T22:52:03.400Z,62.73
2018-09-03T22:54:31.862Z,62.50
2018-09-03T22:57:00.290Z,62.73
2018-09-03T22:59:29.127Z,64.87
2018-09-03T23:01:57.566Z,65.33
2018-09-03T23:04:26.229Z,66.83
2018-09-03T23:06:54.687Z,65.13
2018-09-03T23:09:23.170Z,66.77
2018-09-03T23:11:51.652Z,67.20
2018-09-03T23:14:20.114Z,66.53
2018-09-03T23:16:48.864Z,66.80
2018-09-03T23:19:17.325Z,65.13
2018-09-03T23:21:45.757Z,67.03
2018-09-03T23:24:14.874Z,65.73
2018-09-03T23:26:43.315Z,66.97
2018-09-03T23:29:12.189Z,67.77
2018-09-03T23:31:40.625Z,64.40
2018-09-03T23:34:09.079Z,68.43
2018-09-03T23:36:37.502Z,68.50
2018-09-03T23:39:06.934Z,68.97
2018-09-03T23:41:35.644Z,69.40
2018-09-03T23:44:04.118Z,64.50
2018-09-03T23:46:33.370Z,62.93
2018-09-03T23:49:03.064Z,59.63
2018-09-03T23:51:32.280Z,61.10
2018-09-03T23:54:01.321Z,58.47
2018-09-03T23:56:29.794Z,60.60
2018-09-03T23:58:58.669Z,61.57
